createdAt,value
2022-11-12T00:01:06.528Z,17.83
2022-11-12T00:03:33.281Z,18.47
2022-11-12T00:06:00.054Z,18.40
2022-11-12T00:08:27.049Z,18.00
2022-11-12T00:10:54.119Z,20.13
2022-11-12T00:13:20.823Z,20.07
2022-11-12T00:15:47.948Z,24.50
2022-11-12T00:18:14.657Z,22.27
2022-11-12T00:20:41.663Z,22.40
2022-11-12T00:23:08.635Z,19.80
2022-11-12T00:25:35.537Z,19.87
2022-11-12T00:28:10.100Z,19.27
2022-11-12T00:30:41.162Z,18.10
2022-11-12T00:33:08.149Z,18.53
2022-11-12T00:35:35.173Z,19.03
2022-11-12T00:38:02.206Z,19.60
2022-11-12T00:40:29.303Z,18.27
2022-11-12T00:42:56.408Z,17.60
2022-11-12T00:45:23.238Z,20.20
2022-11-12T00:47:50.170Z,18.57
2022-11-12T00:50:17.150Z,17.20
2022-11-12T00:52:43.908Z,19.53
2022-11-12T00:55:10.725Z,17.50
2022-11-12T00:57:37.569Z,17.83
2022-11-12T01:00:06.221Z,19.70
2022-11-12T01:02:42.399Z,20.57
2022-11-12T01:05:11.538Z,20.23
2022-11-12T01:07:38.313Z,19.87
2022-11-12T01:10:05.610Z,19.80
2022-11-12T01:12:33.176Z,19.63
2022-11-12T01:15:00.183Z,19.03
2022-11-12T01:17:27.236Z,19.23
2022-11-12T01:19:53.957Z,20.60
2022-11-12T01:22:20.871Z,19.77
2022-11-12T01:24:47.539Z,19.93
2022-11-12T01:27:14.611Z,19.93
2022-11-12T01:29:41.355Z,19.73
2022-11-12T01:32:08.297Z,20.10
2022-11-12T01:34:35.211Z,19.50
2022-11-12T01:37:01.933Z,21.87
2022-11-12T01:39:28.672Z,22.70
2022-11-12T01:41:55.363Z,22.67
2022-11-12T01:44:26.856Z,20.57
2022-11-12T01:47:19.770Z,21.23
2022-11-12T01:50:01.306Z,20.33
2022-11-12T01:52:46.321Z,20.80
2022-11-12T01:55:25.210Z,22.07
2022-11-12T01:58:09.057Z,21.00
2022-11-12T02:00:36.549Z,22.87
2022-11-12T02:03:08.322Z,21.00
2022-11-12T02:05:36.923Z,22.47
2022-11-12T02:08:05.730Z,20.93
2022-11-12T02:10:32.474Z,21.67
2022-11-12T02:13:17.905Z,21.17
2022-11-12T02:15:44.761Z,21.40
2022-11-12T02:18:11.657Z,20.97
2022-11-12T02:20:39.013Z,19.50
2022-11-12T02:23:07.376Z,19.00
2022-11-12T02:25:37.232Z,22.50
2022-11-12T02:28:08.249Z,21.40
2022-11-12T02:30:43.503Z,20.90
2022-11-12T02:33:10.430Z,19.03
2022-11-12T02:35:37.385Z,18.80
2022-11-12T02:38:05.119Z,18.13
2022-11-12T02:40:31.821Z,19.57
2022-11-12T02:42:59.143Z,18.77
2022-11-12T02:45:27.014Z,18.83
2022-11-12T02:47:54.052Z,17.77
2022-11-12T02:50:20.733Z,18.10
2022-11-12T02:52:47.539Z,17.07
2022-11-12T02:55:14.321Z,18.77
2022-11-12T02:57:41.564Z,18.50
2022-11-12T03:00:13.549Z,18.40
2022-11-12T03:02:43.199Z,18.50
2022-11-12T03:05:11.186Z,18.43
2022-11-12T03:07:38.612Z,22.67
2022-11-12T03:10:05.954Z,21.97
2022-11-12T03:12:32.897Z,21.60
2022-11-12T03:14:59.707Z,21.63
2022-11-12T03:17:26.491Z,23.50
2022-11-12T03:19:53.172Z,24.40
2022-11-12T03:22:19.866Z,23.90
2022-11-12T03:24:46.614Z,23.43
2022-11-12T03:27:13.299Z,23.53
2022-11-12T03:29:40.058Z,23.73
2022-11-12T03:32:06.744Z,20.63
2022-11-12T03:34:33.420Z,22.03
2022-11-12T03:37:00.083Z,22.63
2022-11-12T03:39:26.751Z,22.53
2022-11-12T03:41:53.415Z,23.13
2022-11-12T03:44:20.223Z,24.37
2022-11-12T03:46:46.971Z,21.57
2022-11-12T03:49:13.691Z,22.50
2022-11-12T03:51:40.422Z,22.47
2022-11-12T03:54:07.274Z,24.00
2022-11-12T03:56:33.962Z,25.57
2022-11-12T03:59:00.755Z,27.07
2022-11-12T04:01:27.561Z,23.20
2022-11-12T04:03:54.249Z,24.17
2022-11-12T04:06:39.521Z,23.60
2022-11-12T04:09:06.254Z,23.97
2022-11-12T04:11:32.947Z,24.37
2022-11-12T04:14:00.558Z,22.63
2022-11-12T04:16:45.807Z,21.37
2022-11-12T04:19:32.091Z,21.17
2022-11-12T04:22:00.873Z,19.83
2022-11-12T04:25:00.746Z,20.33
2022-11-12T04:27:33.207Z,22.07
2022-11-12T04:30:16.597Z,20.87
2022-11-12T04:32:55.075Z,21.07
2022-11-12T04:35:23.554Z,20.70
2022-11-12T04:37:50.646Z,21.33
2022-11-12T04:40:37.113Z,20.10
2022-11-12T04:43:24.835Z,21.87
2022-11-12T04:45:53.734Z,20.23
2022-11-12T04:48:21.904Z,21.70
2022-11-12T04:50:53.598Z,22.40
2022-11-12T04:53:20.714Z,21.23
2022-11-12T04:55:54.848Z,21.03
2022-11-12T04:58:21.955Z,21.90
2022-11-12T05:00:50.228Z,21.30
2022-11-12T05:03:17.550Z,22.70
2022-11-12T05:05:44.401Z,20.77
2022-11-12T05:08:11.170Z,21.30
2022-11-12T05:10:37.882Z,23.37
2022-11-12T05:13:04.614Z,20.50
2022-11-12T05:15:31.420Z,21.00
2022-11-12T05:17:58.242Z,24.00
2022-11-12T05:20:24.981Z,22.50
2022-11-12T05:23:05.543Z,21.63
2022-11-12T05:25:34.226Z,21.33
2022-11-12T05:28:00.928Z,20.07
2022-11-12T05:30:27.657Z,20.60
2022-11-12T05:32:54.387Z,17.83
2022-11-12T05:35:21.083Z,18.90
2022-11-12T05:37:47.752Z,19.20
2022-11-12T05:40:14.463Z,19.20
2022-11-12T05:42:41.325Z,18.40
2022-11-12T05:45:08.760Z,19.10
2022-11-12T05:47:35.435Z,18.73
2022-11-12T05:50:02.348Z,20.30
2022-11-12T05:52:29.111Z,19.93
2022-11-12T05:54:55.782Z,20.50
2022-11-12T05:57:22.567Z,22.40
2022-11-12T05:59:49.230Z,25.43
2022-11-12T06:02:16.063Z,21.43
2022-11-12T06:04:42.911Z,21.07
2022-11-12T06:07:09.592Z,21.00
2022-11-12T06:09:36.357Z,21.00
2022-11-12T06:12:06.232Z,21.30
2022-11-12T06:14:32.948Z,20.33
2022-11-12T06:16:59.647Z,23.57
2022-11-12T06:19:26.378Z,24.07
2022-11-12T06:21:53.191Z,22.00
2022-11-12T06:24:20.312Z,21.53
2022-11-12T06:26:47.013Z,20.37
2022-11-12T06:29:13.682Z,19.80
2022-11-12T06:31:40.410Z,18.70
2022-11-12T06:34:07.103Z,21.17
2022-11-12T06:36:34.944Z,18.23
2022-11-12T06:39:01.684Z,17.87
2022-11-12T06:41:28.354Z,18.33
2022-11-12T06:43:55.030Z,18.37
2022-11-12T06:46:21.723Z,19.23
2022-11-12T06:48:48.380Z,17.67
2022-11-12T06:51:19.930Z,18.23
2022-11-12T06:53:47.120Z,19.33
2022-11-12T06:56:14.335Z,20.73
2022-11-12T06:58:41.828Z,20.07
2022-11-12T07:01:12.546Z,20.67
2022-11-12T07:03:42.184Z,21.30
2022-11-12T07:06:18.518Z,20.50
2022-11-12T07:08:45.397Z,20.60
2022-11-12T07:11:12.396Z,19.17
2022-11-12T07:13:39.443Z,20.50
2022-11-12T07:16:08.017Z,20.80
2022-11-12T07:18:35.475Z,19.67
2022-11-12T07:21:13.912Z,21.20
2022-11-12T07:23:40.807Z,21.53
2022-11-12T07:26:13.041Z,20.83
2022-11-12T07:28:40.063Z,21.90
2022-11-12T07:31:10.309Z,19.23
2022-11-12T07:33:37.479Z,20.00
2022-11-12T07:36:05.840Z,21.43
2022-11-12T07:38:34.901Z,21.20
2022-11-12T07:41:12.595Z,19.27
2022-11-12T07:43:40.446Z,18.43
2022-11-12T07:46:11.082Z,21.67
2022-11-12T07:48:38.575Z,22.03
2022-11-12T07:51:19.979Z,21.10
2022-11-12T07:53:48.086Z,21.53
2022-11-12T07:56:18.115Z,21.37
2022-11-12T07:58:45.447Z,22.17
2022-11-12T08:01:52.829Z,22.83
2022-11-12T08:04:19.712Z,23.60
2022-11-12T08:06:46.791Z,23.83
2022-11-12T08:09:13.647Z,22.43
2022-11-12T08:11:42.076Z,23.27
2022-11-12T08:14:09.129Z,24.60
2022-11-12T08:16:35.917Z,21.83
2022-11-12T08:19:02.741Z,22.30
2022-11-12T08:21:29.562Z,24.67
2022-11-12T08:23:56.341Z,25.17
2022-11-12T08:26:23.284Z,24.90
2022-11-12T08:28:50.170Z,22.77
2022-11-12T08:31:19.820Z,24.83
2022-11-12T08:33:46.759Z,23.27
2022-11-12T08:36:15.099Z,23.83
2022-11-12T08:38:42.403Z,25.00
2022-11-12T08:41:11.947Z,24.87
2022-11-12T08:43:40.223Z,24.47
2022-11-12T08:46:07.103Z,23.40
2022-11-12T08:48:35.171Z,24.70
2022-11-12T08:51:03.578Z,27.77
2022-11-12T08:53:30.967Z,26.70
2022-11-12T08:55:58.345Z,24.80
2022-11-12T08:58:26.071Z,23.73
2022-11-12T09:00:53.992Z,30.03
2022-11-12T09:03:23.569Z,33.53
2022-11-12T09:05:51.054Z,34.93
2022-11-12T09:08:21.901Z,36.00
2022-11-12T09:10:49.326Z,37.50
2022-11-12T09:13:18.289Z,39.73
2022-11-12T09:15:46.257Z,39.93
2022-11-12T09:18:16.872Z,43.23
2022-11-12T09:20:43.836Z,41.13
2022-11-12T09:23:15.880Z,42.47
2022-11-12T09:25:42.978Z,43.20
2022-11-12T09:28:15.239Z,44.77
2022-11-12T09:30:46.352Z,43.60
2022-11-12T09:33:18.607Z,43.30
2022-11-12T09:35:46.499Z,41.93
2022-11-12T09:38:15.389Z,40.33
2022-11-12T09:40:51.477Z,38.40
2022-11-12T09:43:36.882Z,40.70
2022-11-12T09:46:28.501Z,38.77
2022-11-12T09:49:21.760Z,40.47
2022-11-12T09:51:53.863Z,38.30
2022-11-12T09:54:28.080Z,34.80
2022-11-12T09:56:55.344Z,34.97
2022-11-12T09:59:24.338Z,30.57
2022-11-12T10:02:02.619Z,28.40
2022-11-12T10:04:53.701Z,27.07
2022-11-12T10:07:40.468Z,28.53
2022-11-12T10:10:16.222Z,27.23
2022-11-12T10:13:17.662Z,25.83
2022-11-12T10:16:37.011Z,24.13
2022-11-12T10:19:22.534Z,25.73
2022-11-12T10:22:02.936Z,25.13
2022-11-12T10:24:36.906Z,26.27
2022-11-12T10:27:27.375Z,25.87
2022-11-12T10:30:03.872Z,26.00
2022-11-12T10:32:30.558Z,24.83
2022-11-12T10:34:57.675Z,24.30
2022-11-12T10:37:33.917Z,22.13
2022-11-12T10:40:20.524Z,23.07
2022-11-12T10:43:16.585Z,22.57
2022-11-12T10:45:48.005Z,21.80
2022-11-12T10:48:31.026Z,20.60
2022-11-12T10:50:58.348Z,20.33
2022-11-12T10:53:35.263Z,18.23
2022-11-12T10:56:22.791Z,20.00
2022-11-12T10:59:26.654Z,18.93
2022-11-12T11:02:19.860Z,18.90
2022-11-12T11:04:46.805Z,18.53
2022-11-12T11:07:43.428Z,17.47
2022-11-12T11:10:29.943Z,18.40
2022-11-12T11:13:19.360Z,17.80
2022-11-12T11:16:30.451Z,18.57
2022-11-12T11:19:01.172Z,17.10
2022-11-12T11:21:49.928Z,17.60
2022-11-12T11:24:19.362Z,17.03
2022-11-12T11:26:58.819Z,16.23
2022-11-12T11:30:12.057Z,17.10
2022-11-12T11:32:53.826Z,16.83
2022-11-12T11:35:41.765Z,16.63
2022-11-12T11:38:21.374Z,15.67
2022-11-12T11:41:10.218Z,16.43
2022-11-12T11:43:43.494Z,15.90
2022-11-12T11:46:24.099Z,16.97
2022-11-12T11:49:30.844Z,15.93
2022-11-12T11:52:15.641Z,15.33
2022-11-12T11:54:51.675Z,14.90
2022-11-12T11:57:51.572Z,14.17
2022-11-12T12:00:23.861Z,14.13
2022-11-12T12:03:12.692Z,14.30
2022-11-12T12:06:05.754Z,13.77
2022-11-12T12:08:56.913Z,14.40
2022-11-12T12:11:41.842Z,15.73
2022-11-12T12:14:53.990Z,16.17
2022-11-12T12:17:38.396Z,17.40
2022-11-12T12:20:44.420Z,16.33
2022-11-12T12:23:19.353Z,16.47
2022-11-12T12:25:49.224Z,17.70
2022-11-12T12:28:34.346Z,17.63
2022-11-12T12:31:07.159Z,16.53
2022-11-12T12:33:37.696Z,16.77
2022-11-12T12:36:11.240Z,16.53
2022-11-12T12:38:48.894Z,16.40
2022-11-12T12:41:37.273Z,16.27
2022-11-12T12:44:06.473Z,15.83
2022-11-12T12:46:46.630Z,16.23
2022-11-12T12:49:23.747Z,15.40
2022-11-12T12:51:55.616Z,15.47
2022-11-12T12:54:34.737Z,15.70
2022-11-12T12:57:04.118Z,14.53
2022-11-12T12:59:31.132Z,13.97
2022-11-12T13:02:03.104Z,13.30
2022-11-12T13:04:53.115Z,13.40
2022-11-12T13:07:47.186Z,13.30
2022-11-12T13:10:38.974Z,12.50
2022-11-12T13:13:31.852Z,12.13
2022-11-12T13:16:00.184Z,12.47
2022-11-12T13:18:50.207Z,12.27
2022-11-12T13:21:19.569Z,13.00
2022-11-12T13:24:11.096Z,12.47
2022-11-12T13:26:53.857Z,12.70
2022-11-12T13:29:29.827Z,12.90
2022-11-12T13:32:32.607Z,12.83
2022-11-12T13:35:26.143Z,12.43
2022-11-12T13:38:01.407Z,12.63
2022-11-12T13:41:09.854Z,12.20
2022-11-12T13:43:40.299Z,12.07
2022-11-12T13:46:07.307Z,11.70
2022-11-12T13:48:44.394Z,12.50
2022-11-12T13:51:22.512Z,12.60
2022-11-12T13:53:49.357Z,12.07
2022-11-12T13:56:33.970Z,12.27
2022-11-12T13:59:22.033Z,10.67
2022-11-12T14:01:49.995Z,10.27
2022-11-12T14:04:19.927Z,10.17
2022-11-12T14:06:54.699Z,10.60
2022-11-12T14:09:40.338Z,10.80
2022-11-12T14:12:16.392Z,10.07
2022-11-12T14:15:15.267Z,10.50
2022-11-12T14:18:00.512Z,11.03
2022-11-12T14:20:33.381Z,11.60
2022-11-12T14:23:14.072Z,10.80
2022-11-12T14:25:57.134Z,11.03
2022-11-12T14:28:31.354Z,11.87
2022-11-12T14:30:59.999Z,10.87
2022-11-12T14:33:29.046Z,11.93
2022-11-12T14:36:19.070Z,11.20
2022-11-12T14:38:53.680Z,12.40
2022-11-12T14:41:25.666Z,12.80
2022-11-12T14:44:11.512Z,11.50
2022-11-12T14:46:47.072Z,11.13
2022-11-12T14:49:42.368Z,10.77
2022-11-12T14:52:31.773Z,11.33
2022-11-12T14:55:05.972Z,10.97
2022-11-12T14:57:33.308Z,10.37
2022-11-12T14:59:59.993Z,11.83
2022-11-12T15:02:48.899Z,10.97
2022-11-12T15:05:23.432Z,11.60
2022-11-12T15:07:59.240Z,11.10
2022-11-12T15:10:33.060Z,12.70
2022-11-12T15:13:11.683Z,10.53
2022-11-12T15:15:49.435Z,11.50
2022-11-12T15:18:20.109Z,11.80
2022-11-12T15:21:12.020Z,11.20
2022-11-12T15:24:02.216Z,11.40
2022-11-12T15:26:36.588Z,11.93
2022-11-12T15:29:15.666Z,10.67
2022-11-12T15:31:57.102Z,11.30
2022-11-12T15:34:31.771Z,11.77
2022-11-12T15:37:02.424Z,11.00
2022-11-12T15:39:30.348Z,10.90
2022-11-12T15:42:14.110Z,12.10
2022-11-12T15:44:41.033Z,11.40
2022-11-12T15:47:19.846Z,11.07
2022-11-12T15:49:50.396Z,12.10
2022-11-12T15:52:17.467Z,11.70
2022-11-12T15:54:44.279Z,12.97
2022-11-12T15:57:23.245Z,11.53
2022-11-12T16:00:00.567Z,13.43
2022-11-12T16:02:31.980Z,13.07
2022-11-12T16:04:58.832Z,12.37
2022-11-12T16:07:25.750Z,13.47
2022-11-12T16:09:52.516Z,13.13
2022-11-12T16:12:19.421Z,12.80
2022-11-12T16:14:46.205Z,12.17
2022-11-12T16:17:17.726Z,12.53
2022-11-12T16:19:46.843Z,11.57
2022-11-12T16:22:16.342Z,12.43
2022-11-12T16:24:43.093Z,12.07
2022-11-12T16:27:16.270Z,11.80
2022-11-12T16:29:46.738Z,12.00
2022-11-12T16:32:14.251Z,12.10
2022-11-12T16:34:40.934Z,12.00
2022-11-12T16:37:11.824Z,12.70
2022-11-12T16:39:38.676Z,12.93
2022-11-12T16:42:05.478Z,12.87
2022-11-12T16:44:32.181Z,13.17
2022-11-12T16:47:01.746Z,13.37
2022-11-12T16:49:28.419Z,13.43
2022-11-12T16:51:55.109Z,14.40
2022-11-12T16:54:21.851Z,13.13
2022-11-12T16:56:50.972Z,14.23
2022-11-12T16:59:17.683Z,15.30
2022-11-12T17:01:44.374Z,14.20
2022-11-12T17:04:11.202Z,13.63
2022-11-12T17:06:40.518Z,14.50
2022-11-12T17:09:10.101Z,14.90
2022-11-12T17:11:37.673Z,15.00
2022-11-12T17:14:05.884Z,15.57
2022-11-12T17:16:32.765Z,15.27
2022-11-12T17:19:01.702Z,16.33
2022-11-12T17:21:29.626Z,17.73
2022-11-12T17:23:58.047Z,17.50
2022-11-12T17:26:24.795Z,15.90
2022-11-12T17:28:57.549Z,16.50
2022-11-12T17:31:27.382Z,15.07
2022-11-12T17:33:54.110Z,15.60
2022-11-12T17:36:23.592Z,16.37
2022-11-12T17:38:57.250Z,17.47
2022-11-12T17:41:25.180Z,18.80
2022-11-12T17:43:56.459Z,18.97
2022-11-12T17:46:23.731Z,17.93
2022-11-12T17:48:50.783Z,17.77
2022-11-12T17:51:20.359Z,18.57
2022-11-12T17:53:47.235Z,18.80
2022-11-12T17:56:17.736Z,18.77
2022-11-12T17:58:48.493Z,18.90
2022-11-12T18:01:21.782Z,17.63
2022-11-12T18:03:50.452Z,18.37
2022-11-12T18:06:18.712Z,17.50
2022-11-12T18:08:45.916Z,18.30
2022-11-12T18:11:14.382Z,17.57
2022-11-12T18:13:41.148Z,18.87
2022-11-12T18:16:33.912Z,19.63
2022-11-12T18:19:01.250Z,17.33
2022-11-12T18:21:28.445Z,18.37
2022-11-12T18:23:55.260Z,18.73
2022-11-12T18:26:22.211Z,19.20
2022-11-12T18:28:52.462Z,17.00
2022-11-12T18:31:19.294Z,17.73
2022-11-12T18:33:45.990Z,26.13
2022-11-12T18:36:16.413Z,31.57
2022-11-12T18:38:43.117Z,36.03
2022-11-12T18:41:12.204Z,30.60
2022-11-12T18:43:39.631Z,27.57
2022-11-12T18:46:07.319Z,24.50
2022-11-12T18:48:35.087Z,22.70
2022-11-12T18:51:13.414Z,23.23
2022-11-12T18:53:41.438Z,21.50
2022-11-12T18:56:13.951Z,22.77
2022-11-12T18:58:40.939Z,21.30
2022-11-12T19:01:15.967Z,23.67
2022-11-12T19:03:43.868Z,20.63
2022-11-12T19:06:14.687Z,21.93
2022-11-12T19:08:41.802Z,21.73
2022-11-12T19:11:11.522Z,22.20
2022-11-12T19:13:38.837Z,21.00
2022-11-12T19:16:16.983Z,21.03
2022-11-12T19:18:44.456Z,23.93
2022-11-12T19:21:17.305Z,23.60
2022-11-12T19:23:44.491Z,25.73
2022-11-12T19:26:12.811Z,22.63
2022-11-12T19:28:40.352Z,22.33
2022-11-12T19:31:10.635Z,21.50
2022-11-12T19:33:37.347Z,20.60
2022-11-12T19:36:09.425Z,21.57
2022-11-12T19:38:36.207Z,19.30
2022-11-12T19:41:08.004Z,21.67
2022-11-12T19:43:34.817Z,22.13
2022-11-12T19:46:02.302Z,20.77
2022-11-12T19:48:29.682Z,23.37
2022-11-12T19:51:05.193Z,27.57
2022-11-12T19:53:37.169Z,26.67
2022-11-12T19:56:05.814Z,27.77
2022-11-12T19:58:33.226Z,28.70
2022-11-12T20:01:11.254Z,29.67
2022-11-12T20:03:38.446Z,28.93
2022-11-12T20:06:13.086Z,30.23
2022-11-12T20:08:39.956Z,30.90
2022-11-12T20:11:07.805Z,28.60
2022-11-12T20:13:34.563Z,28.97
2022-11-12T20:16:09.647Z,28.40
2022-11-12T20:18:36.419Z,28.37
2022-11-12T20:21:04.969Z,26.80
2022-11-12T20:23:33.870Z,28.20
2022-11-12T20:26:07.331Z,28.70
2022-11-12T20:28:35.093Z,26.63
2022-11-12T20:31:07.075Z,27.97
2022-11-12T20:33:37.989Z,26.57
2022-11-12T20:36:11.748Z,28.20
2022-11-12T20:38:40.319Z,26.07
2022-11-12T20:41:12.245Z,25.97
2022-11-12T20:43:38.942Z,26.43
2022-11-12T20:46:05.793Z,27.53
2022-11-12T20:48:32.506Z,27.53
2022-11-12T20:51:24.690Z,28.10
2022-11-12T20:53:58.949Z,26.97
2022-11-12T20:56:28.599Z,25.87
2022-11-12T20:58:55.508Z,25.90
2022-11-12T21:01:23.776Z,27.30
2022-11-12T21:03:51.180Z,25.83
2022-11-12T21:06:21.281Z,25.07
2022-11-12T21:08:48.315Z,23.97
2022-11-12T21:11:17.958Z,24.00
2022-11-12T21:13:44.888Z,24.53
2022-11-12T21:16:13.058Z,25.03
2022-11-12T21:18:39.894Z,27.67
2022-11-12T21:21:15.351Z,28.23
2022-11-12T21:23:43.932Z,27.83
2022-11-12T21:26:16.110Z,28.27
2022-11-12T21:28:48.288Z,30.20
2022-11-12T21:31:18.651Z,32.20
2022-11-12T21:33:48.757Z,28.97
2022-11-12T21:36:16.763Z,30.60
2022-11-12T21:38:44.422Z,31.63
2022-11-12T21:41:23.573Z,31.27
2022-11-12T21:43:50.787Z,30.53
2022-11-12T21:46:24.846Z,29.53
2022-11-12T21:48:55.074Z,28.60
2022-11-12T21:51:30.915Z,27.97
2022-11-12T21:54:03.683Z,26.97
2022-11-12T21:56:30.791Z,27.23
2022-11-12T21:59:00.297Z,24.60
2022-11-12T22:01:29.908Z,26.97
2022-11-12T22:03:57.939Z,25.10
2022-11-12T22:06:29.736Z,26.67
2022-11-12T22:08:58.211Z,25.50
2022-11-12T22:11:27.660Z,26.07
2022-11-12T22:13:54.966Z,26.00
2022-11-12T22:16:23.836Z,26.47
2022-11-12T22:18:53.275Z,28.90
2022-11-12T22:21:28.437Z,32.63
2022-11-12T22:23:55.857Z,34.20
2022-11-12T22:26:25.353Z,29.77
2022-11-12T22:28:53.482Z,28.87
2022-11-12T22:31:23.175Z,28.47
2022-11-12T22:33:50.519Z,26.90
2022-11-12T22:36:22.663Z,27.50
2022-11-12T22:38:51.231Z,27.97
2022-11-12T22:41:20.555Z,27.13
2022-11-12T22:43:48.790Z,28.97
2022-11-12T22:46:21.673Z,28.60
2022-11-12T22:48:48.803Z,26.20
2022-11-12T22:51:24.216Z,28.20
2022-11-12T22:53:58.971Z,28.37
2022-11-12T22:56:27.306Z,27.67
2022-11-12T22:58:54.685Z,27.20
2022-11-12T23:01:24.224Z,26.67
2022-11-12T23:03:52.363Z,26.97
2022-11-12T23:06:19.285Z,27.93
2022-11-12T23:08:46.284Z,28.40
2022-11-12T23:11:16.388Z,28.63
2022-11-12T23:13:43.981Z,26.77
2022-11-12T23:16:13.933Z,27.47
2022-11-12T23:18:41.046Z,26.23
2022-11-12T23:21:10.047Z,26.47
2022-11-12T23:23:37.252Z,26.63
2022-11-12T23:26:07.492Z,27.80
2022-11-12T23:28:35.242Z,24.47
2022-11-12T23:31:09.316Z,26.73
2022-11-12T23:33:36.152Z,27.00
2022-11-12T23:36:08.221Z,25.43
2022-11-12T23:38:35.225Z,27.50
2022-11-12T23:41:02.917Z,28.17
2022-11-12T23:43:29.819Z,27.43
2022-11-12T23:45:57.843Z,27.60
2022-11-12T23:48:25.397Z,27.03
2022-11-12T23:51:04.578Z,26.13
2022-11-12T23:53:33.328Z,24.50
2022-11-12T23:56:00.884Z,25.60
2022-11-12T23:58:28.390Z,25.03
